Time;durP1;ratioP1;P1;durP2;ratioP2;P2;SDS_P1;SDS_P2;PMS_P1;PMS_P2;Temp;Humidity;BMP_temperature;BMP_pressure;BME280_temperature;BME280_humidity;BME280_pressure;Samples;Min_cycle;Max_cycle;Signal;HPM_P1;HPM_P2
2022/04/12 00:02:31;;;;;;;17.35;8.30;;;;;;;;;;8236556;28;20054;-73
2022/04/12 00:06:34;;;;;;;13.98;7.50;;;;;;;;;;8236468;28;20079;-74
2022/04/12 00:10:37;;;;;;;15.02;7.47;;;;;;;;;;8236425;28;20054;-73
2022/04/12 00:14:40;;;;;;;13.55;7.80;;;;;;;;;;8236705;28;20051;-74
2022/04/12 00:23:03;;;;;;;19.50;9.18;;;;;;;;;;8225690;28;20050;-74
2022/04/12 00:27:05;;;;;;;14.98;8.35;;;;;;;;;;8236257;28;20054;-74
2022/04/12 00:31:08;;;;;;;19.75;9.90;;;;;;;;;;8236133;28;20461;-73
2022/04/12 00:35:12;;;;;;;16.25;8.48;;;;;;;;;;8235947;28;20479;-73
2022/04/12 00:39:15;;;;;;;17.88;10.00;;;;;;;;;;8234875;28;20483;-73
2022/04/12 00:43:19;;;;;;;16.92;8.85;;;;;;;;;;8235675;28;20055;-74
2022/04/12 00:47:21;;;;;;;19.13;9.00;;;;;;;;;;8235120;28;20053;-74
2022/04/12 00:51:25;;;;;;;14.35;8.80;;;;;;;;;;8235535;28;20055;-73
2022/04/12 00:55:30;;;;;;;16.70;9.27;;;;;;;;;;8235461;28;20376;-74
2022/04/12 00:59:33;;;;;;;16.42;9.57;;;;;;;;;;8234798;28;20051;-74
2022/04/12 01:03:36;;;;;;;15.23;9.18;;;;;;;;;;8235360;28;20048;-74
2022/04/12 01:07:40;;;;;;;22.63;10.07;;;;;;;;;;8234433;28;20051;-73
2022/04/12 01:11:48;;;;;;;19.17;9.38;;;;;;;;;;8234732;28;20055;-74
2022/04/12 01:15:51;;;;;;;16.27;9.30;;;;;;;;;;8234466;28;20057;-74
2022/04/12 01:19:53;;;;;;;20.08;9.73;;;;;;;;;;8234628;28;20055;-74
2022/04/12 01:24:00;;;;;;;20.65;10.57;;;;;;;;;;8234060;28;20427;-74
2022/04/12 01:28:03;;;;;;;18.00;9.48;;;;;;;;;;8234164;28;20047;-76
2022/04/12 01:32:07;;;;;;;17.00;9.38;;;;;;;;;;8234381;28;20061;-73
2022/04/12 01:36:11;;;;;;;15.95;8.88;;;;;;;;;;8234253;28;20491;-74
2022/04/12 01:40:14;;;;;;;17.30;9.20;;;;;;;;;;8233786;28;20050;-74
2022/04/12 01:44:23;;;;;;;19.55;9.80;;;;;;;;;;8234136;28;20146;-74
2022/04/12 01:48:29;;;;;;;18.10;8.65;;;;;;;;;;8233545;28;20050;-73
2022/04/12 01:52:40;;;;;;;15.18;8.70;;;;;;;;;;8232607;28;20047;-73
2022/04/12 01:56:51;;;;;;;23.58;9.65;;;;;;;;;;8233663;28;20134;-73
2022/04/12 02:00:57;;;;;;;17.42;10.15;;;;;;;;;;8233483;28;20050;-74
2022/04/12 02:05:02;;;;;;;19.10;10.38;;;;;;;;;;8233248;28;20057;-74
2022/04/12 02:09:07;;;;;;;16.55;8.90;;;;;;;;;;8233154;28;20054;-74
2022/04/12 02:13:20;;;;;;;19.30;8.55;;;;;;;;;;8233553;28;20050;-74
2022/04/12 02:17:23;;;;;;;18.83;8.70;;;;;;;;;;8215757;28;20058;-74
2022/04/12 02:21:25;;;;;;;16.15;7.75;;;;;;;;;;8232947;28;20050;-74
2022/04/12 02:25:28;;;;;;;15.05;8.65;;;;;;;;;;8232870;28;20066;-74
2022/04/12 02:29:32;;;;;;;101.22;31.98;;;;;;;;;;8233377;28;20047;-75
2022/04/12 02:33:35;;;;;;;19.92;10.00;;;;;;;;;;8232943;28;20054;-73
2022/04/12 02:37:38;;;;;;;18.33;9.90;;;;;;;;;;8233586;28;20051;-74
2022/04/12 02:41:40;;;;;;;17.50;9.23;;;;;;;;;;8233177;28;20051;-73
2022/04/12 02:45:45;;;;;;;16.73;9.00;;;;;;;;;;8233493;28;20404;-73
2022/04/12 02:49:48;;;;;;;17.27;8.88;;;;;;;;;;8232936;28;20043;-73
2022/04/12 02:53:50;;;;;;;23.80;9.32;;;;;;;;;;8246127;28;20051;-74
2022/04/12 02:57:53;;;;;;;16.60;9.18;;;;;;;;;;8265356;28;20046;-73
2022/04/12 03:01:57;;;;;;;19.60;9.90;;;;;;;;;;8264975;28;20046;-73
2022/04/12 03:06:00;;;;;;;18.30;9.02;;;;;;;;;;8240114;28;20062;-74
2022/04/12 03:10:03;;;;;;;17.38;9.23;;;;;;;;;;8238367;28;20046;-73
2022/04/12 03:14:06;;;;;;;14.73;8.52;;;;;;;;;;8238517;28;20047;-73
2022/04/12 03:18:10;;;;;;;14.70;8.57;;;;;;;;;;8237910;28;20057;-74
2022/04/12 03:22:13;;;;;;;16.88;8.45;;;;;;;;;;8237482;28;20043;-75
2022/04/12 03:26:15;;;;;;;14.82;8.02;;;;;;;;;;8238210;28;20377;-73
2022/04/12 03:30:18;;;;;;;17.92;10.15;;;;;;;;;;8238134;28;20589;-73
2022/04/12 03:34:22;;;;;;;22.60;11.38;;;;;;;;;;8237532;28;20494;-73
2022/04/12 03:38:25;;;;;;;28.83;11.95;;;;;;;;;;8237346;28;20074;-73
2022/04/12 03:42:28;;;;;;;15.73;8.80;;;;;;;;;;8237131;28;20468;-73
2022/04/12 03:46:30;;;;;;;16.17;9.45;;;;;;;;;;8237568;28;20050;-73
2022/04/12 03:50:34;;;;;;;21.10;8.55;;;;;;;;;;8236992;28;20054;-73
2022/04/12 03:54:37;;;;;;;20.15;10.32;;;;;;;;;;8237376;28;20042;-74
2022/04/12 03:58:40;;;;;;;31.60;13.35;;;;;;;;;;8237174;28;20050;-73
2022/04/12 04:02:43;;;;;;;22.25;9.27;;;;;;;;;;8225647;28;20051;-74
2022/04/12 04:06:47;;;;;;;21.33;9.63;;;;;;;;;;8214303;28;20051;-74
2022/04/12 04:10:49;;;;;;;26.45;9.23;;;;;;;;;;8236851;28;20053;-74
2022/04/12 04:14:52;;;;;;;20.38;11.02;;;;;;;;;;8235684;28;20471;-74
2022/04/12 04:18:55;;;;;;;21.15;11.00;;;;;;;;;;8236730;28;20047;-74
2022/04/12 04:22:58;;;;;;;19.83;11.55;;;;;;;;;;8236073;28;20063;-74
2022/04/12 04:27:05;;;;;;;18.77;9.40;;;;;;;;;;8235889;28;20061;-74
2022/04/12 04:31:08;;;;;;;19.35;9.73;;;;;;;;;;8236088;28;20051;-75
2022/04/12 04:35:11;;;;;;;19.23;10.25;;;;;;;;;;8225377;28;20051;-75
2022/04/12 04:39:14;;;;;;;21.35;10.77;;;;;;;;;;8228011;28;20047;-75
2022/04/12 04:43:18;;;;;;;22.00;12.85;;;;;;;;;;8223959;28;20051;-75
2022/04/12 04:47:20;;;;;;;21.45;10.10;;;;;;;;;;8233764;28;20219;-75
2022/04/12 04:51:23;;;;;;;23.23;11.02;;;;;;;;;;8232287;28;20043;-75
2022/04/12 04:55:27;;;;;;;15.95;9.77;;;;;;;;;;8234483;28;20105;-74
2022/04/12 04:59:29;;;;;;;21.83;11.77;;;;;;;;;;8235194;28;20043;-77
2022/04/12 05:03:32;;;;;;;19.80;10.88;;;;;;;;;;8235153;28;20545;-75
2022/04/12 05:07:35;;;;;;;18.13;10.45;;;;;;;;;;8234984;28;20392;-74
2022/04/12 05:11:38;;;;;;;14.40;8.25;;;;;;;;;;8234584;28;20046;-74
2022/04/12 05:15:41;;;;;;;17.05;9.88;;;;;;;;;;8234820;28;20062;-74
2022/04/12 05:19:44;;;;;;;42.72;23.45;;;;;;;;;;8234804;28;20047;-74
2022/04/12 05:23:47;;;;;;;19.10;9.50;;;;;;;;;;8234579;28;20054;-73
2022/04/12 05:27:51;;;;;;;19.45;9.48;;;;;;;;;;8233893;28;20054;-74
2022/04/12 05:31:54;;;;;;;13.65;8.60;;;;;;;;;;8231424;28;20121;-75
2022/04/12 05:35:58;;;;;;;17.10;9.02;;;;;;;;;;8205641;28;20405;-75
2022/04/12 05:40:04;;;;;;;19.17;9.63;;;;;;;;;;8228131;28;20053;-75
2022/04/12 05:44:14;;;;;;;26.88;15.40;;;;;;;;;;8206495;28;20055;-75
2022/04/12 05:48:18;;;;;;;28.63;14.93;;;;;;;;;;8232455;28;20043;-75
2022/04/12 05:52:23;;;;;;;20.08;12.25;;;;;;;;;;8232168;28;20050;-75
2022/04/12 05:56:27;;;;;;;18.42;11.32;;;;;;;;;;8231649;28;20475;-75
2022/04/12 06:00:33;;;;;;;23.50;11.00;;;;;;;;;;8232681;28;20042;-75
2022/04/12 06:04:37;;;;;;;14.77;8.75;;;;;;;;;;8232298;28;20380;-76
2022/04/12 06:08:41;;;;;;;18.13;8.57;;;;;;;;;;8233392;28;20093;-75
2022/04/12 06:12:47;;;;;;;20.63;10.45;;;;;;;;;;8232752;28;20058;-75
2022/04/12 06:16:54;;;;;;;15.55;7.90;;;;;;;;;;8231205;28;20641;-76
2022/04/12 06:20:58;;;;;;;12.75;8.00;;;;;;;;;;8230992;28;20043;-75
2022/04/12 06:25:04;;;;;;;14.05;7.80;;;;;;;;;;8230725;28;20058;-76
2022/04/12 06:29:09;;;;;;;14.88;7.68;;;;;;;;;;8232645;28;20054;-76
2022/04/12 06:33:16;;;;;;;10.45;6.75;;;;;;;;;;8229754;28;20104;-76
2022/04/12 06:37:20;;;;;;;10.73;6.25;;;;;;;;;;8217045;28;20047;-76
2022/04/12 06:41:24;;;;;;;10.27;5.28;;;;;;;;;;8218644;28;20078;-75
2022/04/12 06:45:29;;;;;;;10.75;6.07;;;;;;;;;;8236011;28;20189;-76
2022/04/12 06:49:35;;;;;;;9.52;4.30;;;;;;;;;;8238509;28;20064;-80
2022/04/12 06:53:39;;;;;;;7.53;3.80;;;;;;;;;;8242875;28;20042;-80
2022/04/12 06:57:42;;;;;;;5.25;3.17;;;;;;;;;;8230081;28;20058;-80
2022/04/12 07:01:46;;;;;;;6.72;3.15;;;;;;;;;;8208445;28;20079;-81
2022/04/12 07:05:55;;;;;;;7.15;3.83;;;;;;;;;;8235394;28;20526;-81
2022/04/12 07:10:00;;;;;;;6.95;3.50;;;;;;;;;;8238155;28;20053;-82
2022/04/12 07:14:04;;;;;;;7.05;3.33;;;;;;;;;;8236214;28;20049;-81
2022/04/12 07:18:09;;;;;;;7.43;3.63;;;;;;;;;;8237842;28;20043;-80
2022/04/12 07:22:16;;;;;;;6.85;4.20;;;;;;;;;;8234088;28;20462;-81
2022/04/12 07:26:26;;;;;;;5.47;2.83;;;;;;;;;;8237586;28;20053;-81
2022/04/12 07:30:32;;;;;;;5.45;2.65;;;;;;;;;;8237566;28;20481;-80
2022/04/12 07:34:59;;;;;;;5.75;2.92;;;;;;;;;;8236761;28;20047;-80
2022/04/12 07:39:21;;;;;;;5.43;2.70;;;;;;;;;;8236586;28;20483;-80
2022/04/12 07:43:28;;;;;;;4.30;2.50;;;;;;;;;;8235593;28;20050;-81
2022/04/12 07:47:36;;;;;;;6.45;3.30;;;;;;;;;;8237919;28;20392;-81
2022/04/12 07:51:48;;;;;;;5.72;2.70;;;;;;;;;;8236784;28;20057;-80
2022/04/12 07:55:55;;;;;;;6.00;2.72;;;;;;;;;;8236461;28;20050;-80
2022/04/12 08:00:01;;;;;;;5.82;2.80;;;;;;;;;;8237344;28;20462;-80
2022/04/12 08:08:48;;;;;;;5.63;2.80;;;;;;;;;;8229282;28;20075;-80
2022/04/12 08:12:57;;;;;;;6.38;2.70;;;;;;;;;;8232423;28;20053;-80
2022/04/12 08:17:01;;;;;;;5.53;2.63;;;;;;;;;;8235258;28;20105;-80
2022/04/12 08:21:06;;;;;;;6.43;2.40;;;;;;;;;;8236043;28;20054;-80
2022/04/12 08:25:12;;;;;;;3.88;2.15;;;;;;;;;;8235105;28;20062;-79
2022/04/12 08:29:19;;;;;;;3.65;2.00;;;;;;;;;;8235809;28;20047;-80
2022/04/12 08:33:22;;;;;;;6.22;2.95;;;;;;;;;;8234869;28;20043;-79
2022/04/12 08:37:25;;;;;;;4.93;2.70;;;;;;;;;;8231156;28;20049;-79
2022/04/12 08:41:40;;;;;;;5.80;2.33;;;;;;;;;;8234089;28;20062;-79
2022/04/12 08:45:48;;;;;;;5.20;2.65;;;;;;;;;;8234979;28;20058;-81
2022/04/12 08:49:52;;;;;;;5.63;2.28;;;;;;;;;;8234421;28;20047;-80
2022/04/12 08:53:58;;;;;;;5.30;2.90;;;;;;;;;;8235118;28;20060;-87
2022/04/12 08:58:02;;;;;;;3.85;2.30;;;;;;;;;;8234783;28;20058;-86
2022/04/12 09:02:09;;;;;;;5.20;2.25;;;;;;;;;;8234389;28;20057;-87
2022/04/12 09:06:16;;;;;;;4.95;2.30;;;;;;;;;;8234354;28;20058;-87
2022/04/12 09:10:25;;;;;;;3.90;2.08;;;;;;;;;;8231358;28;20087;-83
2022/04/12 09:14:38;;;;;;;4.38;2.00;;;;;;;;;;8202257;28;20047;-86
2022/04/12 09:18:45;;;;;;;4.30;1.98;;;;;;;;;;8202371;28;20392;-81
2022/04/12 09:22:50;;;;;;;4.57;2.20;;;;;;;;;;8202320;29;20518;-81
2022/04/12 09:26:58;;;;;;;5.15;2.25;;;;;;;;;;8202643;28;20396;-80
2022/04/12 09:31:02;;;;;;;6.97;2.10;;;;;;;;;;8201953;29;20054;-80
2022/04/12 09:35:11;;;;;;;11.32;6.85;;;;;;;;;;8201245;28;20043;-80
2022/04/12 09:39:19;;;;;;;6.97;2.22;;;;;;;;;;8201913;28;20047;-80
2022/04/12 09:43:25;;;;;;;5.35;2.60;;;;;;;;;;8201778;28;20490;-81
2022/04/12 09:47:33;;;;;;;3.83;2.28;;;;;;;;;;8201605;28;20055;-78
2022/04/12 09:51:39;;;;;;;5.75;2.70;;;;;;;;;;8203279;28;20055;-78
2022/04/12 09:55:44;;;;;;;4.25;1.92;;;;;;;;;;8227269;28;20043;-78
2022/04/12 09:59:50;;;;;;;5.57;2.90;;;;;;;;;;8233468;28;20077;-80
2022/04/12 10:03:57;;;;;;;6.00;2.80;;;;;;;;;;8232350;28;20157;-79
2022/04/12 10:08:04;;;;;;;6.20;2.58;;;;;;;;;;8233028;28;20046;-79
2022/04/12 10:12:11;;;;;;;5.88;2.75;;;;;;;;;;8233895;28;20043;-79
2022/04/12 10:16:19;;;;;;;5.13;2.60;;;;;;;;;;8240019;28;20058;-79
2022/04/12 10:20:23;;;;;;;5.88;2.88;;;;;;;;;;8238722;28;20047;-79
2022/04/12 10:24:30;;;;;;;6.80;2.80;;;;;;;;;;8239047;28;20063;-79
2022/04/12 10:28:34;;;;;;;9.90;3.40;;;;;;;;;;8238872;28;20075;-79
2022/04/12 10:32:40;;;;;;;4.30;2.83;;;;;;;;;;8207333;28;20392;-78
2022/04/12 10:37:00;;;;;;;5.88;2.80;;;;;;;;;;8207431;28;20063;-78
2022/04/12 10:41:13;;;;;;;7.07;3.53;;;;;;;;;;8215118;28;20042;-79
2022/04/12 10:45:15;;;;;;;5.90;3.00;;;;;;;;;;8238948;28;20043;-78
2022/04/12 10:49:20;;;;;;;5.53;2.58;;;;;;;;;;8239196;28;20046;-82
2022/04/12 10:53:57;;;;;;;6.15;2.70;;;;;;;;;;8248044;28;20495;-78
2022/04/12 10:58:16;;;;;;;4.07;2.50;;;;;;;;;;8271124;28;20042;-94
2022/04/12 11:02:18;;;;;;;9.10;3.38;;;;;;;;;;8269067;28;20073;-89
2022/04/12 11:06:23;;;;;;;5.25;2.83;;;;;;;;;;8210951;28;20483;-90
2022/04/12 11:10:26;;;;;;;5.22;2.80;;;;;;;;;;8204565;28;20130;-90
2022/04/12 11:14:33;;;;;;;5.53;2.72;;;;;;;;;;8204569;28;20051;-89
2022/04/12 11:18:47;;;;;;;4.85;2.83;;;;;;;;;;8204081;28;20446;-89
2022/04/12 11:22:59;;;;;;;6.38;2.72;;;;;;;;;;8214467;28;20055;-89
2022/04/12 11:27:05;;;;;;;4.60;2.95;;;;;;;;;;8237503;28;20133;-89
2022/04/12 11:31:10;;;;;;;5.30;2.97;;;;;;;;;;8243559;28;20505;-88
2022/04/12 11:35:13;;;;;;;4.65;3.00;;;;;;;;;;8240437;28;20055;-89
2022/04/12 11:39:18;;;;;;;5.20;2.60;;;;;;;;;;8241687;28;20049;-88
2022/04/12 11:43:22;;;;;;;5.80;2.95;;;;;;;;;;8242530;28;20058;-89
2022/04/12 11:47:33;;;;;;;6.50;2.75;;;;;;;;;;8240267;28;20059;-88
2022/04/12 11:51:41;;;;;;;5.32;3.03;;;;;;;;;;8240175;28;20046;-89
2022/04/12 11:55:46;;;;;;;5.03;2.80;;;;;;;;;;8209220;28;20051;-88
2022/04/12 11:59:50;;;;;;;4.28;2.83;;;;;;;;;;8221227;28;20042;-91
2022/04/12 12:04:06;;;;;;;5.22;2.33;;;;;;;;;;8240577;28;20454;-89
2022/04/12 12:08:10;;;;;;;6.03;2.58;;;;;;;;;;8240920;28;20071;-88
2022/04/12 12:12:13;;;;;;;4.35;2.03;;;;;;;;;;8239496;28;20058;-91
2022/04/12 12:16:16;;;;;;;8.52;2.95;;;;;;;;;;8243826;28;20097;-88
2022/04/12 12:20:22;;;;;;;4.88;2.80;;;;;;;;;;8239182;28;20047;-91
2022/04/12 12:24:25;;;;;;;7.38;3.70;;;;;;;;;;8238527;28;20499;-88
2022/04/12 12:28:29;;;;;;;5.30;2.90;;;;;;;;;;8238017;28;20051;-88
2022/04/12 12:32:33;;;;;;;3.35;2.47;;;;;;;;;;8237562;28;20051;-86
2022/04/12 12:36:38;;;;;;;6.25;2.67;;;;;;;;;;8230072;28;20055;-88
2022/04/12 12:40:42;;;;;;;4.68;2.97;;;;;;;;;;8230247;28;20042;-88
2022/04/12 12:44:47;;;;;;;4.65;2.38;;;;;;;;;;8226306;28;20059;-87
2022/04/12 12:49:06;;;;;;;4.47;2.70;;;;;;;;;;8232843;28;20077;-89
2022/04/12 12:53:13;;;;;;;6.47;3.10;;;;;;;;;;8229359;28;20042;-93
2022/04/12 12:57:16;;;;;;;7.57;5.03;;;;;;;;;;8226436;28;20131;-89
2022/04/12 13:01:21;;;;;;;5.20;2.78;;;;;;;;;;8221053;28;20055;-86
2022/04/12 13:05:24;;;;;;;3.90;2.60;;;;;;;;;;8233396;28;20042;-86
2022/04/12 13:09:32;;;;;;;14.18;11.35;;;;;;;;;;8234547;28;20501;-86
2022/04/12 13:13:41;;;;;;;6.80;3.00;;;;;;;;;;8234264;28;20403;-85
2022/04/12 13:17:44;;;;;;;4.93;2.30;;;;;;;;;;8234124;28;20049;-84
2022/04/12 13:21:52;;;;;;;8.55;2.70;;;;;;;;;;8233687;28;20043;-84
2022/04/12 13:25:57;;;;;;;8.38;2.97;;;;;;;;;;8233261;28;20416;-85
2022/04/12 13:30:05;;;;;;;6.18;2.83;;;;;;;;;;8231791;28;20062;-85
2022/04/12 13:34:11;;;;;;;7.65;3.45;;;;;;;;;;8231879;28;20039;-84
2022/04/12 13:38:16;;;;;;;4.93;2.63;;;;;;;;;;8233601;28;20054;-84
2022/04/12 13:42:21;;;;;;;5.88;3.42;;;;;;;;;;8233435;28;20047;-84
2022/04/12 13:46:24;;;;;;;5.45;3.10;;;;;;;;;;8233138;28;20074;-85
2022/04/12 13:50:28;;;;;;;4.90;2.67;;;;;;;;;;8232908;28;20058;-84
2022/04/12 13:54:31;;;;;;;6.20;2.97;;;;;;;;;;8233022;28;20043;-86
2022/04/12 13:58:38;;;;;;;5.90;2.90;;;;;;;;;;8232965;28;20174;-84
2022/04/12 14:02:42;;;;;;;6.03;2.90;;;;;;;;;;8232390;28;20487;-84
2022/04/12 14:06:46;;;;;;;4.55;2.70;;;;;;;;;;8232203;28;20145;-84
2022/04/12 14:10:49;;;;;;;6.15;2.90;;;;;;;;;;8231569;28;20047;-84
2022/04/12 14:14:53;;;;;;;4.22;2.92;;;;;;;;;;8233279;28;20805;-84
2022/04/12 14:18:57;;;;;;;5.57;2.97;;;;;;;;;;8230998;28;20070;-84
2022/04/12 14:23:03;;;;;;;7.57;3.58;;;;;;;;;;8232390;28;20051;-84
2022/04/12 14:27:17;;;;;;;8.77;3.10;;;;;;;;;;8231286;28;20055;-84
2022/04/12 14:31:23;;;;;;;9.43;4.60;;;;;;;;;;8232736;28;20050;-84
2022/04/12 14:35:26;;;;;;;10.60;5.40;;;;;;;;;;8232768;28;20585;-84
2022/04/12 14:39:34;;;;;;;7.80;3.63;;;;;;;;;;8232752;28;20113;-84
2022/04/12 14:43:37;;;;;;;7.65;3.90;;;;;;;;;;8232146;28;20130;-83
2022/04/12 14:47:42;;;;;;;5.45;3.03;;;;;;;;;;8229168;28;20387;-84
2022/04/12 14:51:45;;;;;;;5.05;3.20;;;;;;;;;;8229580;28;20127;-84
2022/04/12 14:56:15;;;;;;;4.93;2.97;;;;;;;;;;8231019;28;20051;-84
2022/04/12 15:00:19;;;;;;;6.10;3.28;;;;;;;;;;8235160;28;20070;-83
2022/04/12 15:04:24;;;;;;;9.23;3.90;;;;;;;;;;8238010;28;20403;-84
2022/04/12 15:08:27;;;;;;;7.68;3.60;;;;;;;;;;8237147;28;20097;-84
2022/04/12 15:12:35;;;;;;;9.02;3.80;;;;;;;;;;8238857;28;20538;-86
2022/04/12 15:16:39;;;;;;;7.75;4.10;;;;;;;;;;8234199;28;20038;-86
2022/04/12 15:20:49;;;;;;;6.70;3.35;;;;;;;;;;8233930;28;20101;-87
2022/04/12 15:25:01;;;;;;;8.80;4.20;;;;;;;;;;8238040;28;20069;-84
2022/04/12 15:29:10;;;;;;;5.00;3.25;;;;;;;;;;8239851;28;20053;-85
2022/04/12 15:33:14;;;;;;;4.20;2.97;;;;;;;;;;8233903;28;20073;-85
2022/04/12 15:37:22;;;;;;;9.63;3.50;;;;;;;;;;8209169;28;20051;-85
2022/04/12 15:41:30;;;;;;;7.28;3.78;;;;;;;;;;8235193;28;20701;-87
2022/04/12 15:45:40;;;;;;;5.18;3.28;;;;;;;;;;8213245;28;20073;-86
2022/04/12 15:49:52;;;;;;;6.07;3.30;;;;;;;;;;8236189;28;20066;-85
2022/04/12 15:54:11;;;;;;;3.92;2.88;;;;;;;;;;8230944;28;20587;-86
2022/04/12 15:58:19;;;;;;;10.85;4.72;;;;;;;;;;8231564;28;20057;-86
2022/04/12 16:02:34;;;;;;;6.82;3.30;;;;;;;;;;8226860;28;20138;-86
2022/04/12 16:06:42;;;;;;;6.07;3.17;;;;;;;;;;8232619;28;20110;-86
2022/04/12 16:10:56;;;;;;;12.63;6.63;;;;;;;;;;8231353;28;20043;-86
2022/04/12 16:15:07;;;;;;;13.07;5.93;;;;;;;;;;8232404;28;20047;-86
2022/04/12 16:19:28;;;;;;;12.53;5.70;;;;;;;;;;8233039;28;20101;-85
2022/04/12 16:23:53;;;;;;;11.63;4.75;;;;;;;;;;8232990;28;20318;-87
2022/04/12 16:28:07;;;;;;;11.27;5.43;;;;;;;;;;8232245;28;20054;-86
2022/04/12 16:37:08;;;;;;;12.15;5.50;;;;;;;;;;8234582;28;20074;-85
2022/04/12 16:41:20;;;;;;;21.90;9.13;;;;;;;;;;8234991;28;20050;-88
2022/04/12 16:45:37;;;;;;;26.17;9.18;;;;;;;;;;8234666;28;20053;-85
2022/04/12 16:49:44;;;;;;;23.52;8.23;;;;;;;;;;8232346;28;20486;-88
2022/04/12 16:53:51;;;;;;;34.60;12.40;;;;;;;;;;8227211;28;20253;-87
2022/04/12 16:58:04;;;;;;;27.52;10.48;;;;;;;;;;8228130;28;20509;-86
2022/04/12 17:02:19;;;;;;;39.00;14.27;;;;;;;;;;8228102;28;20113;-86
2022/04/12 17:06:24;;;;;;;33.95;14.57;;;;;;;;;;8234700;28;20050;-87
2022/04/12 17:10:29;;;;;;;25.20;10.18;;;;;;;;;;8234158;28;20562;-86
2022/04/12 17:14:41;;;;;;;22.88;10.40;;;;;;;;;;8234314;28;20411;-87
2022/04/12 17:19:12;;;;;;;34.38;14.27;;;;;;;;;;8233919;28;20039;-86
2022/04/12 17:23:55;;;;;;;50.72;27.48;;;;;;;;;;8232968;28;20481;-87
2022/04/12 17:28:03;;;;;;;14.77;7.10;;;;;;;;;;8229788;28;20043;-86
2022/04/12 17:32:13;;;;;;;16.33;8.00;;;;;;;;;;8229742;28;20487;-86
2022/04/12 17:36:31;;;;;;;14.77;7.95;;;;;;;;;;8231738;28;20573;-86
2022/04/12 17:40:42;;;;;;;13.07;6.15;;;;;;;;;;8229649;28;20046;-85
2022/04/12 17:44:56;;;;;;;15.90;6.75;;;;;;;;;;8218607;28;20070;-85
2022/04/12 17:49:11;;;;;;;12.88;7.15;;;;;;;;;;8202871;28;20090;-86
2022/04/12 17:53:22;;;;;;;28.25;12.40;;;;;;;;;;8206329;28;20050;-87
2022/04/12 17:57:25;;;;;;;15.35;7.57;;;;;;;;;;8230879;28;20089;-86
2022/04/12 18:01:32;;;;;;;8.55;5.03;;;;;;;;;;8233455;28;20659;-86
2022/04/12 18:05:41;;;;;;;13.20;6.18;;;;;;;;;;8231056;28;20047;-85
2022/04/12 18:09:51;;;;;;;25.83;12.35;;;;;;;;;;8200616;28;20051;-92
2022/04/12 18:14:16;;;;;;;41.47;19.00;;;;;;;;;;8201207;28;20062;-84
2022/04/12 18:18:25;;;;;;;21.45;10.18;;;;;;;;;;8200848;28;20175;-84
2022/04/12 18:22:33;;;;;;;17.42;9.77;;;;;;;;;;8206672;28;20059;-84
2022/04/12 18:27:00;;;;;;;17.45;8.43;;;;;;;;;;8222532;28;20051;-84
2022/04/12 18:36:02;;;;;;;10.55;5.30;;;;;;;;;;8222946;28;20054;-85
2022/04/12 18:40:14;;;;;;;9.90;5.38;;;;;;;;;;8222967;28;20315;-92
2022/04/12 18:44:22;;;;;;;17.42;7.35;;;;;;;;;;8225937;28;20054;-85
2022/04/12 18:48:27;;;;;;;15.63;7.03;;;;;;;;;;8220248;28;20135;-84
2022/04/12 18:52:46;;;;;;;21.33;9.73;;;;;;;;;;8220278;28;20055;-84
2022/04/12 18:57:00;;;;;;;39.95;20.00;;;;;;;;;;8219983;28;20594;-85
2022/04/12 19:05:52;;;;;;;23.23;11.45;;;;;;;;;;8228062;28;20050;-87
2022/04/12 19:09:56;;;;;;;31.05;16.85;;;;;;;;;;8229704;28;20308;-85
2022/04/12 19:13:59;;;;;;;25.05;13.57;;;;;;;;;;8230810;28;20051;-85
2022/04/12 19:18:04;;;;;;;17.73;8.05;;;;;;;;;;8233331;28;20062;-85
2022/04/12 19:22:08;;;;;;;14.00;7.90;;;;;;;;;;8228538;28;20051;-86
2022/04/12 19:26:14;;;;;;;18.92;8.77;;;;;;;;;;8228768;28;20062;-91
2022/04/12 19:30:28;;;;;;;18.35;9.40;;;;;;;;;;8224304;28;20047;-85
2022/04/12 19:34:34;;;;;;;12.52;6.43;;;;;;;;;;8225767;28;20487;-86
2022/04/12 19:38:43;;;;;;;9.30;5.40;;;;;;;;;;8218629;28;20106;-90
2022/04/12 19:42:52;;;;;;;19.48;10.13;;;;;;;;;;8214805;28;20081;-93
2022/04/12 19:47:21;;;;;;;12.45;8.27;;;;;;;;;;8222965;28;20051;-85
2022/04/12 19:51:29;;;;;;;19.08;10.02;;;;;;;;;;8218543;28;20053;-85
2022/04/12 19:55:36;;;;;;;17.02;10.20;;;;;;;;;;8221228;28;20038;-93
2022/04/12 19:59:42;;;;;;;17.52;8.20;;;;;;;;;;8224174;28;20043;-84
2022/04/12 20:03:46;;;;;;;17.85;8.73;;;;;;;;;;8217429;28;20053;-85
2022/04/12 20:07:50;;;;;;;26.75;14.07;;;;;;;;;;8220556;28;20491;-87
2022/04/12 20:11:54;;;;;;;22.23;12.13;;;;;;;;;;8217823;28;20047;-88
2022/04/12 20:16:01;;;;;;;20.95;10.32;;;;;;;;;;8220010;28;20043;-85
2022/04/12 20:20:05;;;;;;;18.73;9.70;;;;;;;;;;8216064;28;20074;-84
2022/04/12 20:24:10;;;;;;;19.70;11.15;;;;;;;;;;8223106;28;20055;-85
2022/04/12 20:28:13;;;;;;;28.15;14.05;;;;;;;;;;8214502;28;20051;-84
2022/04/12 20:32:17;;;;;;;19.77;10.68;;;;;;;;;;8218554;28;20396;-83
2022/04/12 20:36:22;;;;;;;18.55;9.05;;;;;;;;;;8202978;28;20130;-84
2022/04/12 20:40:30;;;;;;;36.42;16.23;;;;;;;;;;8203510;28;20411;-83
2022/04/12 20:44:34;;;;;;;30.92;13.15;;;;;;;;;;8204276;28;20468;-83
2022/04/12 20:48:38;;;;;;;22.17;12.57;;;;;;;;;;8203362;28;20166;-85
2022/04/12 20:52:41;;;;;;;26.60;13.65;;;;;;;;;;8203390;28;20491;-84
2022/04/12 20:56:46;;;;;;;18.02;9.00;;;;;;;;;;8203044;28;20043;-84
2022/04/12 21:00:49;;;;;;;17.75;7.82;;;;;;;;;;8203169;28;20054;-88
2022/04/12 21:04:52;;;;;;;22.08;11.50;;;;;;;;;;8203004;29;20122;-83
2022/04/12 21:08:55;;;;;;;16.85;9.23;;;;;;;;;;8202839;28;20051;-84
2022/04/12 21:12:59;;;;;;;17.40;8.18;;;;;;;;;;8202729;29;20047;-91
2022/04/12 21:17:02;;;;;;;12.25;7.00;;;;;;;;;;8202546;28;20075;-84
2022/04/12 21:21:05;;;;;;;13.13;6.60;;;;;;;;;;8202755;28;20057;-84
2022/04/12 21:25:10;;;;;;;16.80;8.40;;;;;;;;;;8202264;28;20063;-84
2022/04/12 21:29:14;;;;;;;18.88;8.27;;;;;;;;;;8202373;28;20510;-84
2022/04/12 21:33:17;;;;;;;17.13;7.50;;;;;;;;;;8202648;28;20480;-84
2022/04/12 21:37:20;;;;;;;21.38;11.18;;;;;;;;;;8202593;28;20487;-84
2022/04/12 21:41:22;;;;;;;21.83;11.57;;;;;;;;;;8202005;28;20047;-84
2022/04/12 21:45:26;;;;;;;18.88;8.85;;;;;;;;;;8201958;28;20051;-84
2022/04/12 21:49:29;;;;;;;17.92;9.23;;;;;;;;;;8201885;28;20447;-84
2022/04/12 21:53:31;;;;;;;15.80;8.45;;;;;;;;;;8201860;29;20051;-83
2022/04/12 21:57:34;;;;;;;16.45;7.90;;;;;;;;;;8201775;28;20047;-84
2022/04/12 22:01:38;;;;;;;17.77;8.05;;;;;;;;;;8201683;28;20047;-89
2022/04/12 22:05:41;;;;;;;22.85;8.80;;;;;;;;;;8201528;28;20058;-84
2022/04/12 22:09:44;;;;;;;22.02;8.63;;;;;;;;;;8201479;28;20047;-84
2022/04/12 22:13:47;;;;;;;15.32;8.25;;;;;;;;;;8201520;28;20046;-89
2022/04/12 22:17:51;;;;;;;16.95;7.03;;;;;;;;;;8201419;28;20051;-84
2022/04/12 22:21:54;;;;;;;14.65;6.35;;;;;;;;;;8201386;28;20047;-84
2022/04/12 22:25:57;;;;;;;13.90;6.50;;;;;;;;;;8200945;28;20448;-86
2022/04/12 22:29:59;;;;;;;15.18;6.70;;;;;;;;;;8201729;28;20055;-84
2022/04/12 22:34:04;;;;;;;14.10;6.80;;;;;;;;;;8201145;28;20047;-84
2022/04/12 22:38:07;;;;;;;12.88;6.18;;;;;;;;;;8201101;28;20452;-84
2022/04/12 22:42:10;;;;;;;10.23;6.22;;;;;;;;;;8201169;28;20051;-84
2022/04/12 22:46:12;;;;;;;9.90;5.85;;;;;;;;;;8201009;28;20047;-93
2022/04/12 22:50:17;;;;;;;15.32;6.10;;;;;;;;;;8200866;28;20476;-84
2022/04/12 22:54:21;;;;;;;12.32;6.40;;;;;;;;;;8218379;28;20050;-85
2022/04/12 22:58:24;;;;;;;10.80;6.35;;;;;;;;;;8264841;28;20057;-91
2022/04/12 23:02:26;;;;;;;15.60;6.82;;;;;;;;;;8264774;28;20502;-84
2022/04/12 23:06:30;;;;;;;11.60;5.78;;;;;;;;;;8238244;28;20039;-84
2022/04/12 23:10:36;;;;;;;11.02;5.88;;;;;;;;;;8232726;28;20047;-84
2022/04/12 23:14:39;;;;;;;11.73;5.40;;;;;;;;;;8232492;28;20051;-91
2022/04/12 23:18:45;;;;;;;10.43;5.82;;;;;;;;;;8232607;28;20047;-84
2022/04/12 23:22:50;;;;;;;15.07;6.38;;;;;;;;;;8238075;28;20509;-84
2022/04/12 23:26:53;;;;;;;13.20;6.32;;;;;;;;;;8238084;28;20050;-85
2022/04/12 23:30:55;;;;;;;13.88;7.40;;;;;;;;;;8237738;28;20050;-85
2022/04/12 23:34:58;;;;;;;13.82;7.20;;;;;;;;;;8237925;28;20117;-92
2022/04/12 23:39:02;;;;;;;16.45;7.13;;;;;;;;;;8238214;28;20047;-91
2022/04/12 23:43:07;;;;;;;17.02;7.35;;;;;;;;;;8237559;28;20479;-85
2022/04/12 23:47:10;;;;;;;15.23;7.45;;;;;;;;;;8237370;28;20051;-84
2022/04/12 23:51:12;;;;;;;13.52;6.80;;;;;;;;;;8237358;28;20117;-84
2022/04/12 23:55:16;;;;;;;15.43;6.90;;;;;;;;;;8237166;28;20046;-84
2022/04/12 23:59:20;;;;;;;14.27;6.82;;;;;;;;;;8237227;28;20043;-84
